sensor_id;sensor_type;location;lat;lon;timestamp;P1;durP1;ratioP1;P2;durP2;ratioP2
66487;SDS011;53304;54.550;18.526;2023-03-01T00:02:11;6.80;;;2.90;;
66487;SDS011;53304;54.550;18.526;2023-03-01T00:04:37;7.43;;;3.00;;
66487;SDS011;53304;54.550;18.526;2023-03-01T00:07:02;4.60;;;2.63;;
66487;SDS011;53304;54.550;18.526;2023-03-01T00:09:28;4.65;;;2.50;;
66487;SDS011;53304;54.550;18.526;2023-03-01T00:11:55;5.13;;;2.58;;
66487;SDS011;53304;54.550;18.526;2023-03-01T00:14:23;5.13;;;2.42;;
66487;SDS011;53304;54.550;18.526;2023-03-01T00:16:49;5.35;;;2.45;;
66487;SDS011;53304;54.550;18.526;2023-03-01T00:19:17;4.22;;;2.28;;
66487;SDS011;53304;54.550;18.526;2023-03-01T00:21:43;4.82;;;2.70;;
66487;SDS011;53304;54.550;18.526;2023-03-01T00:24:09;6.43;;;2.63;;
66487;SDS011;53304;54.550;18.526;2023-03-01T00:26:34;6.28;;;2.40;;
66487;SDS011;53304;54.550;18.526;2023-03-01T00:29:00;5.88;;;2.63;;
66487;SDS011;53304;54.550;18.526;2023-03-01T00:31:26;6.18;;;2.40;;
66487;SDS011;53304;54.550;18.526;2023-03-01T00:33:54;6.93;;;2.40;;
66487;SDS011;53304;54.550;18.526;2023-03-01T00:36:28;6.00;;;2.40;;
66487;SDS011;53304;54.550;18.526;2023-03-01T00:38:54;5.25;;;2.25;;
66487;SDS011;53304;54.550;18.526;2023-03-01T00:41:21;5.28;;;2.30;;
66487;SDS011;53304;54.550;18.526;2023-03-01T00:43:51;4.97;;;2.40;;
66487;SDS011;53304;54.550;18.526;2023-03-01T00:46:19;7.22;;;2.75;;
66487;SDS011;53304;54.550;18.526;2023-03-01T00:48:46;5.93;;;2.47;;
66487;SDS011;53304;54.550;18.526;2023-03-01T00:51:16;5.80;;;2.50;;
66487;SDS011;53304;54.550;18.526;2023-03-01T00:53:45;4.22;;;2.10;;
66487;SDS011;53304;54.550;18.526;2023-03-01T00:56:14;7.00;;;2.50;;
66487;SDS011;53304;54.550;18.526;2023-03-01T00:58:42;5.60;;;2.30;;
66487;SDS011;53304;54.550;18.526;2023-03-01T01:01:15;6.07;;;2.30;;
66487;SDS011;53304;54.550;18.526;2023-03-01T01:03:45;7.60;;;2.53;;
66487;SDS011;53304;54.550;18.526;2023-03-01T01:06:17;4.75;;;2.10;;
66487;SDS011;53304;54.550;18.526;2023-03-01T01:08:47;6.45;;;2.40;;
66487;SDS011;53304;54.550;18.526;2023-03-01T01:11:14;6.07;;;2.20;;
66487;SDS011;53304;54.550;18.526;2023-03-01T01:13:40;6.50;;;2.85;;
66487;SDS011;53304;54.550;18.526;2023-03-01T01:16:11;5.50;;;2.53;;
66487;SDS011;53304;54.550;18.526;2023-03-01T01:18:39;6.18;;;2.35;;
66487;SDS011;53304;54.550;18.526;2023-03-01T01:21:06;9.32;;;2.47;;
66487;SDS011;53304;54.550;18.526;2023-03-01T01:23:36;5.95;;;2.20;;
66487;SDS011;53304;54.550;18.526;2023-03-01T01:26:08;4.70;;;2.23;;
66487;SDS011;53304;54.550;18.526;2023-03-01T01:28:38;5.07;;;2.10;;
66487;SDS011;53304;54.550;18.526;2023-03-01T01:31:07;3.88;;;2.00;;
66487;SDS011;53304;54.550;18.526;2023-03-01T01:33:35;5.35;;;2.20;;
66487;SDS011;53304;54.550;18.526;2023-03-01T01:36:02;4.88;;;2.38;;
66487;SDS011;53304;54.550;18.526;2023-03-01T01:38:31;5.50;;;2.20;;
66487;SDS011;53304;54.550;18.526;2023-03-01T01:41:00;5.60;;;2.50;;
66487;SDS011;53304;54.550;18.526;2023-03-01T01:43:27;4.22;;;1.95;;
66487;SDS011;53304;54.550;18.526;2023-03-01T01:46:45;5.07;;;2.40;;
66487;SDS011;53304;54.550;18.526;2023-03-01T01:49:05;5.00;;;2.42;;
66487;SDS011;53304;54.550;18.526;2023-03-01T01:51:35;4.78;;;2.42;;
66487;SDS011;53304;54.550;18.526;2023-03-01T01:54:08;4.65;;;2.10;;
66487;SDS011;53304;54.550;18.526;2023-03-01T01:56:36;5.88;;;2.60;;
66487;SDS011;53304;54.550;18.526;2023-03-01T01:59:03;5.30;;;2.40;;
66487;SDS011;53304;54.550;18.526;2023-03-01T02:01:29;7.03;;;2.63;;
66487;SDS011;53304;54.550;18.526;2023-03-01T02:03:55;4.20;;;2.30;;
66487;SDS011;53304;54.550;18.526;2023-03-01T02:06:27;4.88;;;2.30;;
66487;SDS011;53304;54.550;18.526;2023-03-01T02:08:55;5.97;;;2.58;;
66487;SDS011;53304;54.550;18.526;2023-03-01T02:11:23;4.45;;;2.22;;
66487;SDS011;53304;54.550;18.526;2023-03-01T02:13:48;5.78;;;2.38;;
66487;SDS011;53304;54.550;18.526;2023-03-01T02:16:14;4.95;;;2.13;;
66487;SDS011;53304;54.550;18.526;2023-03-01T02:18:40;4.90;;;2.30;;
66487;SDS011;53304;54.550;18.526;2023-03-01T02:23:40;4.38;;;2.20;;
66487;SDS011;53304;54.550;18.526;2023-03-01T02:28:44;5.38;;;2.28;;
66487;SDS011;53304;54.550;18.526;2023-03-01T02:31:14;5.15;;;2.42;;
66487;SDS011;53304;54.550;18.526;2023-03-01T02:34:02;3.53;;;1.83;;
66487;SDS011;53304;54.550;18.526;2023-03-01T02:36:35;5.70;;;2.03;;
66487;SDS011;53304;54.550;18.526;2023-03-01T02:39:06;5.32;;;2.30;;
66487;SDS011;53304;54.550;18.526;2023-03-01T02:41:36;4.28;;;2.30;;
66487;SDS011;53304;54.550;18.526;2023-03-01T02:44:05;6.43;;;2.47;;
66487;SDS011;53304;54.550;18.526;2023-03-01T02:46:41;10.98;;;2.40;;
66487;SDS011;53304;54.550;18.526;2023-03-01T02:49:45;5.13;;;2.45;;
66487;SDS011;53304;54.550;18.526;2023-03-01T02:54:47;4.50;;;2.03;;
66487;SDS011;53304;54.550;18.526;2023-03-01T02:57:16;4.43;;;2.20;;
66487;SDS011;53304;54.550;18.526;2023-03-01T02:59:42;4.00;;;2.10;;
66487;SDS011;53304;54.550;18.526;2023-03-01T03:02:29;5.10;;;2.67;;
66487;SDS011;53304;54.550;18.526;2023-03-01T03:07:31;5.25;;;2.20;;
66487;SDS011;53304;54.550;18.526;2023-03-01T03:09:59;4.28;;;2.10;;
66487;SDS011;53304;54.550;18.526;2023-03-01T03:12:27;5.20;;;2.33;;
66487;SDS011;53304;54.550;18.526;2023-03-01T03:14:53;4.85;;;2.30;;
66487;SDS011;53304;54.550;18.526;2023-03-01T03:17:24;4.45;;;2.20;;
66487;SDS011;53304;54.550;18.526;2023-03-01T03:19:51;5.65;;;2.00;;
66487;SDS011;53304;54.550;18.526;2023-03-01T03:22:19;4.50;;;2.10;;
66487;SDS011;53304;54.550;18.526;2023-03-01T03:24:44;4.20;;;2.03;;
66487;SDS011;53304;54.550;18.526;2023-03-01T03:27:12;4.10;;;2.10;;
66487;SDS011;53304;54.550;18.526;2023-03-01T03:29:38;5.05;;;2.35;;
66487;SDS011;53304;54.550;18.526;2023-03-01T03:32:05;4.60;;;2.05;;
66487;SDS011;53304;54.550;18.526;2023-03-01T03:34:33;5.15;;;2.20;;
66487;SDS011;53304;54.550;18.526;2023-03-01T03:37:02;4.93;;;2.00;;
66487;SDS011;53304;54.550;18.526;2023-03-01T03:39:27;4.50;;;2.28;;
66487;SDS011;53304;54.550;18.526;2023-03-01T03:41:54;5.82;;;2.30;;
66487;SDS011;53304;54.550;18.526;2023-03-01T03:44:20;4.38;;;2.60;;
66487;SDS011;53304;54.550;18.526;2023-03-01T03:46:45;4.60;;;2.10;;
66487;SDS011;53304;54.550;18.526;2023-03-01T03:49:11;4.43;;;2.60;;
66487;SDS011;53304;54.550;18.526;2023-03-01T03:51:38;3.20;;;2.17;;
66487;SDS011;53304;54.550;18.526;2023-03-01T03:54:08;4.97;;;2.20;;
66487;SDS011;53304;54.550;18.526;2023-03-01T03:56:35;8.82;;;2.40;;
66487;SDS011;53304;54.550;18.526;2023-03-01T03:59:03;5.68;;;2.35;;
66487;SDS011;53304;54.550;18.526;2023-03-01T04:01:30;4.40;;;2.30;;
66487;SDS011;53304;54.550;18.526;2023-03-01T04:03:56;4.10;;;2.28;;
66487;SDS011;53304;54.550;18.526;2023-03-01T04:06:28;4.20;;;2.10;;
66487;SDS011;53304;54.550;18.526;2023-03-01T04:08:54;5.03;;;2.60;;
66487;SDS011;53304;54.550;18.526;2023-03-01T04:11:25;4.22;;;2.30;;
66487;SDS011;53304;54.550;18.526;2023-03-01T04:13:56;4.43;;;2.20;;
66487;SDS011;53304;54.550;18.526;2023-03-01T04:16:23;4.20;;;2.42;;
66487;SDS011;53304;54.550;18.526;2023-03-01T04:18:48;5.28;;;2.40;;
66487;SDS011;53304;54.550;18.526;2023-03-01T04:21:14;4.50;;;2.20;;
66487;SDS011;53304;54.550;18.526;2023-03-01T04:23:39;4.40;;;2.20;;
66487;SDS011;53304;54.550;18.526;2023-03-01T04:26:07;6.13;;;2.30;;
66487;SDS011;53304;54.550;18.526;2023-03-01T04:28:39;5.00;;;2.58;;
66487;SDS011;53304;54.550;18.526;2023-03-01T04:31:10;4.88;;;2.15;;
66487;SDS011;53304;54.550;18.526;2023-03-01T04:33:41;4.70;;;2.38;;
66487;SDS011;53304;54.550;18.526;2023-03-01T04:36:08;5.50;;;2.40;;
66487;SDS011;53304;54.550;18.526;2023-03-01T04:38:37;5.28;;;2.47;;
66487;SDS011;53304;54.550;18.526;2023-03-01T04:41:08;3.90;;;2.05;;
66487;SDS011;53304;54.550;18.526;2023-03-01T04:43:35;4.35;;;2.10;;
66487;SDS011;53304;54.550;18.526;2023-03-01T04:46:04;4.28;;;2.10;;
66487;SDS011;53304;54.550;18.526;2023-03-01T04:48:37;6.30;;;2.40;;
66487;SDS011;53304;54.550;18.526;2023-03-01T04:51:04;12.25;;;2.88;;
66487;SDS011;53304;54.550;18.526;2023-03-01T04:53:35;4.00;;;2.20;;
66487;SDS011;53304;54.550;18.526;2023-03-01T04:56:02;3.75;;;2.15;;
66487;SDS011;53304;54.550;18.526;2023-03-01T04:58:31;3.78;;;2.13;;
66487;SDS011;53304;54.550;18.526;2023-03-01T05:00:56;6.53;;;2.22;;
66487;SDS011;53304;54.550;18.526;2023-03-01T05:03:22;4.30;;;2.20;;
66487;SDS011;53304;54.550;18.526;2023-03-01T05:05:52;5.47;;;2.20;;
66487;SDS011;53304;54.550;18.526;2023-03-01T05:08:18;4.55;;;2.25;;
66487;SDS011;53304;54.550;18.526;2023-03-01T05:10:52;3.63;;;2.10;;
66487;SDS011;53304;54.550;18.526;2023-03-01T05:13:22;4.45;;;2.20;;
66487;SDS011;53304;54.550;18.526;2023-03-01T05:15:49;4.90;;;2.47;;
66487;SDS011;53304;54.550;18.526;2023-03-01T05:18:19;5.35;;;2.28;;
66487;SDS011;53304;54.550;18.526;2023-03-01T05:20:44;5.30;;;2.40;;
66487;SDS011;53304;54.550;18.526;2023-03-01T05:23:12;4.97;;;2.40;;
66487;SDS011;53304;54.550;18.526;2023-03-01T05:25:38;4.40;;;2.40;;
66487;SDS011;53304;54.550;18.526;2023-03-01T05:28:06;4.18;;;2.30;;
66487;SDS011;53304;54.550;18.526;2023-03-01T05:30:36;5.17;;;2.53;;
66487;SDS011;53304;54.550;18.526;2023-03-01T05:33:05;5.72;;;2.50;;
66487;SDS011;53304;54.550;18.526;2023-03-01T05:35:35;5.90;;;2.20;;
66487;SDS011;53304;54.550;18.526;2023-03-01T05:38:06;5.15;;;2.45;;
66487;SDS011;53304;54.550;18.526;2023-03-01T05:40:32;4.53;;;2.50;;
66487;SDS011;53304;54.550;18.526;2023-03-01T05:43:00;4.30;;;2.20;;
66487;SDS011;53304;54.550;18.526;2023-03-01T05:45:29;4.38;;;2.28;;
66487;SDS011;53304;54.550;18.526;2023-03-01T05:47:55;4.25;;;2.30;;
66487;SDS011;53304;54.550;18.526;2023-03-01T05:50:24;4.60;;;2.53;;
66487;SDS011;53304;54.550;18.526;2023-03-01T05:52:59;4.05;;;2.10;;
66487;SDS011;53304;54.550;18.526;2023-03-01T05:55:30;5.25;;;2.47;;
66487;SDS011;53304;54.550;18.526;2023-03-01T05:58:00;4.72;;;2.35;;
66487;SDS011;53304;54.550;18.526;2023-03-01T06:00:27;4.10;;;2.08;;
66487;SDS011;53304;54.550;18.526;2023-03-01T06:02:53;4.25;;;2.30;;
66487;SDS011;53304;54.550;18.526;2023-03-01T06:05:19;4.55;;;2.22;;
66487;SDS011;53304;54.550;18.526;2023-03-01T06:07:44;4.50;;;2.38;;
66487;SDS011;53304;54.550;18.526;2023-03-01T06:10:10;4.20;;;2.42;;
66487;SDS011;53304;54.550;18.526;2023-03-01T06:12:37;4.47;;;2.22;;
66487;SDS011;53304;54.550;18.526;2023-03-01T06:15:09;4.45;;;2.47;;
66487;SDS011;53304;54.550;18.526;2023-03-01T06:17:41;3.63;;;2.28;;
66487;SDS011;53304;54.550;18.526;2023-03-01T06:22:41;5.03;;;2.67;;
66487;SDS011;53304;54.550;18.526;2023-03-01T06:25:07;5.70;;;2.72;;
66487;SDS011;53304;54.550;18.526;2023-03-01T06:27:34;5.13;;;2.47;;
66487;SDS011;53304;54.550;18.526;2023-03-01T06:30:02;7.95;;;2.72;;
66487;SDS011;53304;54.550;18.526;2023-03-01T06:32:28;6.43;;;2.55;;
66487;SDS011;53304;54.550;18.526;2023-03-01T06:34:53;5.10;;;2.50;;
66487;SDS011;53304;54.550;18.526;2023-03-01T06:37:19;6.32;;;2.80;;
66487;SDS011;53304;54.550;18.526;2023-03-01T06:39:44;5.68;;;2.75;;
66487;SDS011;53304;54.550;18.526;2023-03-01T06:42:09;5.57;;;2.78;;
66487;SDS011;53304;54.550;18.526;2023-03-01T06:44:37;5.28;;;2.65;;
66487;SDS011;53304;54.550;18.526;2023-03-01T06:47:03;6.00;;;2.50;;
66487;SDS011;53304;54.550;18.526;2023-03-01T06:49:29;6.13;;;2.70;;
66487;SDS011;53304;54.550;18.526;2023-03-01T06:51:59;7.15;;;3.38;;
66487;SDS011;53304;54.550;18.526;2023-03-01T06:54:27;4.65;;;2.65;;
66487;SDS011;53304;54.550;18.526;2023-03-01T06:56:52;9.77;;;2.60;;
66487;SDS011;53304;54.550;18.526;2023-03-01T06:59:18;7.55;;;2.70;;
66487;SDS011;53304;54.550;18.526;2023-03-01T07:01:43;9.40;;;2.58;;
66487;SDS011;53304;54.550;18.526;2023-03-01T07:04:09;10.88;;;2.83;;
66487;SDS011;53304;54.550;18.526;2023-03-01T07:06:38;7.38;;;2.80;;
66487;SDS011;53304;54.550;18.526;2023-03-01T07:09:06;8.43;;;2.83;;
66487;SDS011;53304;54.550;18.526;2023-03-01T07:11:33;11.40;;;2.65;;
66487;SDS011;53304;54.550;18.526;2023-03-01T07:14:04;8.35;;;2.78;;
66487;SDS011;53304;54.550;18.526;2023-03-01T07:16:31;10.07;;;2.83;;
66487;SDS011;53304;54.550;18.526;2023-03-01T07:18:59;12.23;;;3.05;;
66487;SDS011;53304;54.550;18.526;2023-03-01T07:21:25;9.98;;;2.85;;
66487;SDS011;53304;54.550;18.526;2023-03-01T07:23:52;7.53;;;2.40;;
66487;SDS011;53304;54.550;18.526;2023-03-01T07:26:20;7.38;;;2.63;;
66487;SDS011;53304;54.550;18.526;2023-03-01T07:28:47;9.88;;;2.45;;
66487;SDS011;53304;54.550;18.526;2023-03-01T07:31:17;6.47;;;2.75;;
66487;SDS011;53304;54.550;18.526;2023-03-01T07:33:45;6.35;;;2.47;;
66487;SDS011;53304;54.550;18.526;2023-03-01T07:36:13;9.73;;;2.80;;
66487;SDS011;53304;54.550;18.526;2023-03-01T07:38:38;7.68;;;2.63;;
66487;SDS011;53304;54.550;18.526;2023-03-01T07:41:04;7.70;;;2.70;;
66487;SDS011;53304;54.550;18.526;2023-03-01T07:43:31;16.85;;;3.20;;
66487;SDS011;53304;54.550;18.526;2023-03-01T07:46:01;14.82;;;3.65;;
66487;SDS011;53304;54.550;18.526;2023-03-01T07:48:29;16.33;;;3.10;;
66487;SDS011;53304;54.550;18.526;2023-03-01T07:50:59;9.82;;;3.00;;
66487;SDS011;53304;54.550;18.526;2023-03-01T07:53:25;7.90;;;2.95;;
66487;SDS011;53304;54.550;18.526;2023-03-01T07:56:12;6.70;;;2.70;;
66487;SDS011;53304;54.550;18.526;2023-03-01T07:58:41;8.20;;;2.70;;
66487;SDS011;53304;54.550;18.526;2023-03-01T08:01:09;10.90;;;2.70;;
66487;SDS011;53304;54.550;18.526;2023-03-01T08:03:39;8.30;;;2.92;;
66487;SDS011;53304;54.550;18.526;2023-03-01T08:06:06;7.93;;;2.70;;
66487;SDS011;53304;54.550;18.526;2023-03-01T08:08:33;6.07;;;2.55;;
66487;SDS011;53304;54.550;18.526;2023-03-01T08:10:59;6.00;;;2.50;;
66487;SDS011;53304;54.550;18.526;2023-03-01T08:13:27;6.72;;;2.58;;
66487;SDS011;53304;54.550;18.526;2023-03-01T08:15:52;5.53;;;2.40;;
66487;SDS011;53304;54.550;18.526;2023-03-01T08:18:18;5.43;;;2.42;;
66487;SDS011;53304;54.550;18.526;2023-03-01T08:20:44;5.22;;;2.40;;
66487;SDS011;53304;54.550;18.526;2023-03-01T08:23:10;5.38;;;2.58;;
66487;SDS011;53304;54.550;18.526;2023-03-01T08:25:35;6.30;;;2.53;;
66487;SDS011;53304;54.550;18.526;2023-03-01T08:28:00;5.57;;;2.55;;
66487;SDS011;53304;54.550;18.526;2023-03-01T08:30:26;8.10;;;2.55;;
66487;SDS011;53304;54.550;18.526;2023-03-01T08:32:51;5.28;;;2.70;;
66487;SDS011;53304;54.550;18.526;2023-03-01T08:35:17;4.25;;;2.22;;
66487;SDS011;53304;54.550;18.526;2023-03-01T08:37:42;4.97;;;2.50;;
66487;SDS011;53304;54.550;18.526;2023-03-01T08:40:10;5.78;;;2.40;;
66487;SDS011;53304;54.550;18.526;2023-03-01T08:42:38;5.63;;;2.60;;
66487;SDS011;53304;54.550;18.526;2023-03-01T08:45:10;6.18;;;2.60;;
66487;SDS011;53304;54.550;18.526;2023-03-01T08:47:38;5.18;;;2.30;;
66487;SDS011;53304;54.550;18.526;2023-03-01T08:50:06;5.47;;;2.28;;
66487;SDS011;53304;54.550;18.526;2023-03-01T08:52:32;4.93;;;2.30;;
66487;SDS011;53304;54.550;18.526;2023-03-01T08:55:03;5.85;;;2.30;;
66487;SDS011;53304;54.550;18.526;2023-03-01T08:57:28;4.30;;;2.22;;
66487;SDS011;53304;54.550;18.526;2023-03-01T08:59:59;4.28;;;2.45;;
66487;SDS011;53304;54.550;18.526;2023-03-01T09:02:24;4.22;;;2.33;;
66487;SDS011;53304;54.550;18.526;2023-03-01T09:04:50;4.80;;;2.50;;
66487;SDS011;53304;54.550;18.526;2023-03-01T09:07:15;4.22;;;2.20;;
66487;SDS011;53304;54.550;18.526;2023-03-01T09:09:40;4.90;;;2.30;;
66487;SDS011;53304;54.550;18.526;2023-03-01T09:12:09;5.93;;;2.50;;
66487;SDS011;53304;54.550;18.526;2023-03-01T09:14:34;5.03;;;2.53;;
66487;SDS011;53304;54.550;18.526;2023-03-01T09:17:02;4.80;;;2.58;;
66487;SDS011;53304;54.550;18.526;2023-03-01T09:19:28;4.03;;;2.40;;
66487;SDS011;53304;54.550;18.526;2023-03-01T09:21:54;5.05;;;2.72;;
66487;SDS011;53304;54.550;18.526;2023-03-01T09:24:21;4.65;;;2.22;;
66487;SDS011;53304;54.550;18.526;2023-03-01T09:26:48;4.38;;;2.45;;
66487;SDS011;53304;54.550;18.526;2023-03-01T09:29:16;4.80;;;2.30;;
66487;SDS011;53304;54.550;18.526;2023-03-01T09:31:42;5.80;;;2.78;;
66487;SDS011;53304;54.550;18.526;2023-03-01T09:34:08;4.22;;;2.30;;
66487;SDS011;53304;54.550;18.526;2023-03-01T09:36:34;6.50;;;2.72;;
66487;SDS011;53304;54.550;18.526;2023-03-01T09:38:59;4.95;;;2.55;;
66487;SDS011;53304;54.550;18.526;2023-03-01T09:47:17;4.72;;;2.40;;
66487;SDS011;53304;54.550;18.526;2023-03-01T09:50:21;5.05;;;2.42;;
66487;SDS011;53304;54.550;18.526;2023-03-01T09:55:27;8.90;;;2.80;;
66487;SDS011;53304;54.550;18.526;2023-03-01T09:58:15;5.65;;;2.60;;
66487;SDS011;53304;54.550;18.526;2023-03-01T10:00:57;6.07;;;2.58;;
66487;SDS011;53304;54.550;18.526;2023-03-01T10:06:11;6.40;;;2.97;;
66487;SDS011;53304;54.550;18.526;2023-03-01T10:08:50;15.18;;;3.40;;
66487;SDS011;53304;54.550;18.526;2023-03-01T10:19:53;19.42;;;5.60;;
66487;SDS011;53304;54.550;18.526;2023-03-01T10:22:29;10.63;;;5.60;;
66487;SDS011;53304;54.550;18.526;2023-03-01T10:24:56;11.90;;;5.40;;
66487;SDS011;53304;54.550;18.526;2023-03-01T10:27:29;10.45;;;5.13;;
66487;SDS011;53304;54.550;18.526;2023-03-01T10:32:48;8.90;;;5.15;;
66487;SDS011;53304;54.550;18.526;2023-03-01T10:35:24;10.57;;;5.30;;
66487;SDS011;53304;54.550;18.526;2023-03-01T10:38:02;12.60;;;6.25;;
66487;SDS011;53304;54.550;18.526;2023-03-01T10:40:34;11.48;;;5.85;;
66487;SDS011;53304;54.550;18.526;2023-03-01T10:43:03;11.70;;;5.90;;
66487;SDS011;53304;54.550;18.526;2023-03-01T10:45:35;12.25;;;5.60;;
66487;SDS011;53304;54.550;18.526;2023-03-01T10:50:35;8.48;;;5.45;;
66487;SDS011;53304;54.550;18.526;2023-03-01T10:53:09;9.15;;;5.72;;
66487;SDS011;53304;54.550;18.526;2023-03-01T10:58:23;16.48;;;5.75;;
66487;SDS011;53304;54.550;18.526;2023-03-01T11:00:50;9.82;;;5.40;;
66487;SDS011;53304;54.550;18.526;2023-03-01T11:03:27;10.18;;;5.82;;
66487;SDS011;53304;54.550;18.526;2023-03-01T11:08:41;9.93;;;5.32;;
66487;SDS011;53304;54.550;18.526;2023-03-01T11:11:17;9.98;;;5.10;;
66487;SDS011;53304;54.550;18.526;2023-03-01T11:16:32;10.43;;;5.20;;
66487;SDS011;53304;54.550;18.526;2023-03-01T11:18:59;12.48;;;5.28;;
66487;SDS011;53304;54.550;18.526;2023-03-01T11:21:38;9.77;;;5.07;;
66487;SDS011;53304;54.550;18.526;2023-03-01T11:24:11;8.30;;;4.93;;
66487;SDS011;53304;54.550;18.526;2023-03-01T11:26:39;7.57;;;4.45;;
66487;SDS011;53304;54.550;18.526;2023-03-01T11:29:11;7.68;;;3.88;;
66487;SDS011;53304;54.550;18.526;2023-03-01T11:31:42;8.10;;;4.55;;
66487;SDS011;53304;54.550;18.526;2023-03-01T11:34:14;6.78;;;4.25;;
66487;SDS011;53304;54.550;18.526;2023-03-01T11:36:48;9.43;;;5.38;;
66487;SDS011;53304;54.550;18.526;2023-03-01T11:44:34;9.20;;;5.53;;
66487;SDS011;53304;54.550;18.526;2023-03-01T11:49:54;11.63;;;6.20;;
66487;SDS011;53304;54.550;18.526;2023-03-01T12:00:44;10.77;;;6.18;;
66487;SDS011;53304;54.550;18.526;2023-03-01T12:14:08;9.68;;;5.07;;
66487;SDS011;53304;54.550;18.526;2023-03-01T12:24:36;9.85;;;6.25;;
66487;SDS011;53304;54.550;18.526;2023-03-01T12:27:21;10.77;;;5.80;;
66487;SDS011;53304;54.550;18.526;2023-03-01T12:41:11;9.70;;;5.20;;
66487;SDS011;53304;54.550;18.526;2023-03-01T12:43:43;10.05;;;5.25;;
66487;SDS011;53304;54.550;18.526;2023-03-01T12:46:21;8.10;;;5.20;;
66487;SDS011;53304;54.550;18.526;2023-03-01T12:51:33;8.23;;;4.85;;
66487;SDS011;53304;54.550;18.526;2023-03-01T12:54:37;9.38;;;4.90;;
66487;SDS011;53304;54.550;18.526;2023-03-01T12:57:44;10.02;;;5.15;;
66487;SDS011;53304;54.550;18.526;2023-03-01T13:02:45;7.18;;;4.50;;
66487;SDS011;53304;54.550;18.526;2023-03-01T13:10:34;9.82;;;4.30;;
66487;SDS011;53304;54.550;18.526;2023-03-01T13:13:14;8.75;;;3.90;;
66487;SDS011;53304;54.550;18.526;2023-03-01T13:15:46;6.15;;;3.60;;
66487;SDS011;53304;54.550;18.526;2023-03-01T13:33:46;9.48;;;3.88;;
66487;SDS011;53304;54.550;18.526;2023-03-01T13:49:35;8.63;;;4.05;;
66487;SDS011;53304;54.550;18.526;2023-03-01T13:52:06;7.15;;;3.75;;
66487;SDS011;53304;54.550;18.526;2023-03-01T13:54:32;7.47;;;3.85;;
66487;SDS011;53304;54.550;18.526;2023-03-01T13:56:58;8.38;;;3.75;;
66487;SDS011;53304;54.550;18.526;2023-03-01T13:59:25;8.18;;;3.78;;
66487;SDS011;53304;54.550;18.526;2023-03-01T14:01:59;8.60;;;3.70;;
66487;SDS011;53304;54.550;18.526;2023-03-01T14:04:31;11.85;;;4.70;;
66487;SDS011;53304;54.550;18.526;2023-03-01T14:09:35;12.68;;;3.83;;
66487;SDS011;53304;54.550;18.526;2023-03-01T14:14:52;9.35;;;4.20;;
66487;SDS011;53304;54.550;18.526;2023-03-01T14:19:57;11.98;;;3.60;;
66487;SDS011;53304;54.550;18.526;2023-03-01T14:24:57;14.00;;;3.70;;
66487;SDS011;53304;54.550;18.526;2023-03-01T14:27:33;8.65;;;3.08;;
66487;SDS011;53304;54.550;18.526;2023-03-01T14:30:02;11.75;;;3.00;;
66487;SDS011;53304;54.550;18.526;2023-03-01T14:32:35;9.23;;;3.28;;
66487;SDS011;53304;54.550;18.526;2023-03-01T14:35:03;8.32;;;2.95;;
66487;SDS011;53304;54.550;18.526;2023-03-01T14:37:43;12.13;;;3.65;;
66487;SDS011;53304;54.550;18.526;2023-03-01T14:40:19;6.75;;;3.10;;
66487;SDS011;53304;54.550;18.526;2023-03-01T14:43:14;6.07;;;3.13;;
66487;SDS011;53304;54.550;18.526;2023-03-01T14:45:49;5.47;;;3.00;;
66487;SDS011;53304;54.550;18.526;2023-03-01T14:48:17;10.55;;;3.33;;
66487;SDS011;53304;54.550;18.526;2023-03-01T14:50:44;5.88;;;2.88;;
66487;SDS011;53304;54.550;18.526;2023-03-01T14:53:28;6.63;;;3.20;;
66487;SDS011;53304;54.550;18.526;2023-03-01T14:55:59;6.15;;;2.90;;
66487;SDS011;53304;54.550;18.526;2023-03-01T14:58:34;8.75;;;2.88;;
66487;SDS011;53304;54.550;18.526;2023-03-01T15:01:03;5.53;;;2.75;;
66487;SDS011;53304;54.550;18.526;2023-03-01T15:03:46;5.97;;;2.63;;
66487;SDS011;53304;54.550;18.526;2023-03-01T15:06:15;6.18;;;3.20;;
66487;SDS011;53304;54.550;18.526;2023-03-01T15:08:47;6.38;;;3.03;;
66487;SDS011;53304;54.550;18.526;2023-03-01T15:14:28;9.93;;;2.90;;
66487;SDS011;53304;54.550;18.526;2023-03-01T15:17:05;5.82;;;2.80;;
66487;SDS011;53304;54.550;18.526;2023-03-01T15:19:45;5.50;;;2.78;;
66487;SDS011;53304;54.550;18.526;2023-03-01T15:22:15;5.22;;;2.90;;
66487;SDS011;53304;54.550;18.526;2023-03-01T15:24:41;6.22;;;2.92;;
66487;SDS011;53304;54.550;18.526;2023-03-01T15:27:14;4.72;;;2.80;;
66487;SDS011;53304;54.550;18.526;2023-03-01T15:29:52;7.03;;;2.92;;
66487;SDS011;53304;54.550;18.526;2023-03-01T15:32:30;6.25;;;2.72;;
66487;SDS011;53304;54.550;18.526;2023-03-01T15:35:32;5.78;;;2.63;;
66487;SDS011;53304;54.550;18.526;2023-03-01T15:38:22;6.60;;;2.50;;
66487;SDS011;53304;54.550;18.526;2023-03-01T15:40:49;11.40;;;3.05;;
66487;SDS011;53304;54.550;18.526;2023-03-01T15:46:02;6.63;;;3.15;;
66487;SDS011;53304;54.550;18.526;2023-03-01T15:48:30;7.97;;;2.88;;
66487;SDS011;53304;54.550;18.526;2023-03-01T15:50:59;5.63;;;2.83;;
66487;SDS011;53304;54.550;18.526;2023-03-01T15:53:27;5.75;;;2.83;;
66487;SDS011;53304;54.550;18.526;2023-03-01T15:55:52;7.30;;;2.90;;
66487;SDS011;53304;54.550;18.526;2023-03-01T15:58:22;6.60;;;3.03;;
66487;SDS011;53304;54.550;18.526;2023-03-01T16:00:51;8.15;;;3.10;;
66487;SDS011;53304;54.550;18.526;2023-03-01T16:03:21;8.50;;;3.03;;
66487;SDS011;53304;54.550;18.526;2023-03-01T16:05:49;6.93;;;2.80;;
66487;SDS011;53304;54.550;18.526;2023-03-01T16:08:15;6.82;;;2.95;;
66487;SDS011;53304;54.550;18.526;2023-03-01T16:10:41;5.95;;;2.75;;
66487;SDS011;53304;54.550;18.526;2023-03-01T16:13:14;5.57;;;2.53;;
66487;SDS011;53304;54.550;18.526;2023-03-01T16:15:45;6.93;;;2.80;;
66487;SDS011;53304;54.550;18.526;2023-03-01T16:18:10;6.70;;;2.90;;
66487;SDS011;53304;54.550;18.526;2023-03-01T16:20:36;6.82;;;2.70;;
66487;SDS011;53304;54.550;18.526;2023-03-01T16:23:03;6.38;;;2.60;;
66487;SDS011;53304;54.550;18.526;2023-03-01T16:25:30;7.35;;;2.63;;
66487;SDS011;53304;54.550;18.526;2023-03-01T16:27:58;6.93;;;2.83;;
66487;SDS011;53304;54.550;18.526;2023-03-01T16:30:28;5.93;;;2.95;;
66487;SDS011;53304;54.550;18.526;2023-03-01T16:32:53;6.28;;;2.70;;
66487;SDS011;53304;54.550;18.526;2023-03-01T16:35:21;7.40;;;2.67;;
66487;SDS011;53304;54.550;18.526;2023-03-01T16:37:52;5.57;;;2.63;;
66487;SDS011;53304;54.550;18.526;2023-03-01T16:42:45;6.85;;;2.53;;
66487;SDS011;53304;54.550;18.526;2023-03-01T16:45:12;6.28;;;2.90;;
66487;SDS011;53304;54.550;18.526;2023-03-01T16:47:39;4.93;;;2.67;;
66487;SDS011;53304;54.550;18.526;2023-03-01T16:50:05;7.45;;;2.80;;
66487;SDS011;53304;54.550;18.526;2023-03-01T16:52:31;6.28;;;2.72;;
66487;SDS011;53304;54.550;18.526;2023-03-01T16:54:56;7.78;;;2.70;;
66487;SDS011;53304;54.550;18.526;2023-03-01T16:57:24;7.45;;;2.55;;
66487;SDS011;53304;54.550;18.526;2023-03-01T16:59:52;4.78;;;2.45;;
66487;SDS011;53304;54.550;18.526;2023-03-01T17:02:21;4.50;;;2.72;;
66487;SDS011;53304;54.550;18.526;2023-03-01T17:04:53;5.53;;;3.13;;
66487;SDS011;53304;54.550;18.526;2023-03-01T17:07:24;4.65;;;2.67;;
66487;SDS011;53304;54.550;18.526;2023-03-01T17:09:58;5.07;;;2.42;;
66487;SDS011;53304;54.550;18.526;2023-03-01T17:12:24;5.85;;;2.55;;
66487;SDS011;53304;54.550;18.526;2023-03-01T17:14:49;5.88;;;2.50;;
66487;SDS011;53304;54.550;18.526;2023-03-01T17:17:18;4.70;;;2.50;;
66487;SDS011;53304;54.550;18.526;2023-03-01T17:19:46;6.22;;;2.53;;